Main page
METAR-TAF:

METAR-TAF

Airports :

Mandalay International Airport

Mandalay, Myanmar

latitude: 21-59N, longitude: 096-06E, elevation: 74 m

Current weather observation

The report was made 15 minutes ago, at 15:30 UTC
Wind 5 kt from the West/Northwest
Temperature 20°C
Humidity 53%
Pressure 1017 hPa
Visibility: 6000 m

METAR: VYMD 211530Z 30005KT 6000 NSC 20/10 Q1017 NOSIG

Time: 22:15 (15:45 UTC)

Forecast

The report was made 4 hours and 45 minutes ago, at 11:00 UTC
Forecast valid from 21 at 12 UTC to 22 at 12 UTC
Wind 5 kt from the West
Visibility: 7000 m
Few clouds at a height of 2500 ft
Temporary
from 21 at 12 UTC to 21 at 18 UTC
Wind 8 kt from the Southwest with gusts up to 16 kt
Visibility: 6000 m
Scattered clouds at a height of 2500 ft

TAF: VYMD 211100Z 2112/2212 28005KT 7000 FEW025 TEMPO 2112/2118 23008G16KT 6000 SCT025

Weather observations and forecasts of more than 4000 airports (METAR and TAF reports).

The available stations are represented by yellow and red dots on the map.

Hover mouse over dot to see the name of the station.

Then click to see weather observations and forecasts.

To change the map : click on the green buttons with a black cross to zoom in, on the green button with a dash to zoom out, or on the green arrows for adjacent maps.


METAR-TAF: